sensor_id;sensor_type;location;lat;lon;timestamp;temperature;humidity
21169;DHT22;10742;51.816;8.662;2023-08-06T00:00:14;19.40;94.40
21169;DHT22;10742;51.816;8.662;2023-08-06T00:03:17;19.40;94.50
21169;DHT22;10742;51.816;8.662;2023-08-06T00:06:19;19.50;94.60
21169;DHT22;10742;51.816;8.662;2023-08-06T00:09:22;19.50;94.60
21169;DHT22;10742;51.816;8.662;2023-08-06T00:12:25;19.50;94.60
21169;DHT22;10742;51.816;8.662;2023-08-06T00:15:27;19.50;94.70
21169;DHT22;10742;51.816;8.662;2023-08-06T00:18:30;19.50;94.60
21169;DHT22;10742;51.816;8.662;2023-08-06T00:21:32;19.50;94.60
21169;DHT22;10742;51.816;8.662;2023-08-06T00:24:35;19.50;94.60
21169;DHT22;10742;51.816;8.662;2023-08-06T00:27:38;19.50;94.60
21169;DHT22;10742;51.816;8.662;2023-08-06T00:30:41;19.50;94.60
21169;DHT22;10742;51.816;8.662;2023-08-06T00:33:44;19.50;94.60
21169;DHT22;10742;51.816;8.662;2023-08-06T00:36:47;19.50;94.70
21169;DHT22;10742;51.816;8.662;2023-08-06T00:39:50;19.50;94.70
21169;DHT22;10742;51.816;8.662;2023-08-06T00:42:52;19.50;94.80
21169;DHT22;10742;51.816;8.662;2023-08-06T00:45:55;19.50;94.90
21169;DHT22;10742;51.816;8.662;2023-08-06T00:48:58;19.50;94.90
21169;DHT22;10742;51.816;8.662;2023-08-06T00:52:04;19.50;94.90
21169;DHT22;10742;51.816;8.662;2023-08-06T00:55:07;19.50;95.00
21169;DHT22;10742;51.816;8.662;2023-08-06T00:58:10;19.60;95.00
21169;DHT22;10742;51.816;8.662;2023-08-06T01:01:13;19.50;94.90
21169;DHT22;10742;51.816;8.662;2023-08-06T01:04:16;19.50;94.90
21169;DHT22;10742;51.816;8.662;2023-08-06T01:14:16;19.50;95.10
21169;DHT22;10742;51.816;8.662;2023-08-06T01:17:16;19.60;95.20
21169;DHT22;10742;51.816;8.662;2023-08-06T01:20:19;19.60;95.00
21169;DHT22;10742;51.816;8.662;2023-08-06T01:23:21;19.60;95.00
21169;DHT22;10742;51.816;8.662;2023-08-06T01:30:09;19.60;95.00
21169;DHT22;10742;51.816;8.662;2023-08-06T01:33:16;19.60;95.20
21169;DHT22;10742;51.816;8.662;2023-08-06T01:36:21;19.60;95.10
21169;DHT22;10742;51.816;8.662;2023-08-06T01:39:25;19.60;95.10
21169;DHT22;10742;51.816;8.662;2023-08-06T01:42:27;19.60;95.10
21169;DHT22;10742;51.816;8.662;2023-08-06T01:45:30;19.60;95.10
21169;DHT22;10742;51.816;8.662;2023-08-06T01:48:32;19.60;95.10
21169;DHT22;10742;51.816;8.662;2023-08-06T01:51:35;19.60;95.00
21169;DHT22;10742;51.816;8.662;2023-08-06T01:54:38;19.60;95.00
21169;DHT22;10742;51.816;8.662;2023-08-06T01:57:40;19.60;94.90
21169;DHT22;10742;51.816;8.662;2023-08-06T02:00:43;19.50;94.90
21169;DHT22;10742;51.816;8.662;2023-08-06T02:03:46;19.50;94.80
21169;DHT22;10742;51.816;8.662;2023-08-06T02:06:48;19.50;94.90
21169;DHT22;10742;51.816;8.662;2023-08-06T02:09:51;19.40;94.90
21169;DHT22;10742;51.816;8.662;2023-08-06T02:12:54;19.40;94.90
21169;DHT22;10742;51.816;8.662;2023-08-06T02:15:57;19.40;94.90
21169;DHT22;10742;51.816;8.662;2023-08-06T02:19:00;19.30;94.90
21169;DHT22;10742;51.816;8.662;2023-08-06T02:22:02;19.30;94.90
21169;DHT22;10742;51.816;8.662;2023-08-06T02:25:05;19.30;94.90
21169;DHT22;10742;51.816;8.662;2023-08-06T02:28:08;19.30;95.00
21169;DHT22;10742;51.816;8.662;2023-08-06T02:31:10;19.20;95.00
21169;DHT22;10742;51.816;8.662;2023-08-06T02:34:13;19.20;95.00
21169;DHT22;10742;51.816;8.662;2023-08-06T02:37:15;19.10;95.00
21169;DHT22;10742;51.816;8.662;2023-08-06T02:40:20;19.10;95.10
21169;DHT22;10742;51.816;8.662;2023-08-06T02:43:22;19.10;95.10
21169;DHT22;10742;51.816;8.662;2023-08-06T02:46:25;19.10;95.50
21169;DHT22;10742;51.816;8.662;2023-08-06T02:49:28;19.00;95.10
21169;DHT22;10742;51.816;8.662;2023-08-06T02:52:30;19.00;95.20
21169;DHT22;10742;51.816;8.662;2023-08-06T02:55:34;19.00;95.20
21169;DHT22;10742;51.816;8.662;2023-08-06T02:58:42;18.90;95.20
21169;DHT22;10742;51.816;8.662;2023-08-06T03:01:55;18.90;95.20
21169;DHT22;10742;51.816;8.662;2023-08-06T03:05:05;18.90;95.30
21169;DHT22;10742;51.816;8.662;2023-08-06T03:08:12;18.80;95.30
21169;DHT22;10742;51.816;8.662;2023-08-06T03:11:14;18.80;95.40
21169;DHT22;10742;51.816;8.662;2023-08-06T03:14:18;18.80;95.40
21169;DHT22;10742;51.816;8.662;2023-08-06T03:17:21;18.80;95.40
21169;DHT22;10742;51.816;8.662;2023-08-06T03:20:25;18.70;95.50
21169;DHT22;10742;51.816;8.662;2023-08-06T03:23:27;18.70;95.50
21169;DHT22;10742;51.816;8.662;2023-08-06T03:26:30;18.70;95.50
21169;DHT22;10742;51.816;8.662;2023-08-06T03:29:33;18.70;95.50
21169;DHT22;10742;51.816;8.662;2023-08-06T03:32:36;18.70;95.50
21169;DHT22;10742;51.816;8.662;2023-08-06T03:35:40;18.70;95.50
21169;DHT22;10742;51.816;8.662;2023-08-06T03:38:42;18.60;95.60
21169;DHT22;10742;51.816;8.662;2023-08-06T03:41:47;18.70;95.60
21169;DHT22;10742;51.816;8.662;2023-08-06T03:44:51;18.60;95.50
21169;DHT22;10742;51.816;8.662;2023-08-06T03:47:53;18.60;95.60
21169;DHT22;10742;51.816;8.662;2023-08-06T03:50:56;18.60;95.60
21169;DHT22;10742;51.816;8.662;2023-08-06T03:54:20;18.60;95.60
21169;DHT22;10742;51.816;8.662;2023-08-06T03:57:41;18.60;95.60
21169;DHT22;10742;51.816;8.662;2023-08-06T04:01:03;18.60;95.60
21169;DHT22;10742;51.816;8.662;2023-08-06T04:04:36;18.50;95.60
21169;DHT22;10742;51.816;8.662;2023-08-06T04:07:57;18.50;95.60
21169;DHT22;10742;51.816;8.662;2023-08-06T04:11:19;18.50;95.60
21169;DHT22;10742;51.816;8.662;2023-08-06T04:14:40;18.40;95.90
21169;DHT22;10742;51.816;8.662;2023-08-06T04:18:02;18.40;96.30
21169;DHT22;10742;51.816;8.662;2023-08-06T04:21:23;18.50;96.40
21169;DHT22;10742;51.816;8.662;2023-08-06T04:24:45;18.50;96.20
21169;DHT22;10742;51.816;8.662;2023-08-06T04:28:07;18.50;96.20
21169;DHT22;10742;51.816;8.662;2023-08-06T04:31:29;18.50;96.20
21169;DHT22;10742;51.816;8.662;2023-08-06T04:34:32;18.60;96.40
21169;DHT22;10742;51.816;8.662;2023-08-06T04:37:35;18.60;96.70
21169;DHT22;10742;51.816;8.662;2023-08-06T04:40:38;18.60;96.40
21169;DHT22;10742;51.816;8.662;2023-08-06T04:43:42;18.70;96.40
21169;DHT22;10742;51.816;8.662;2023-08-06T04:46:54;18.70;96.40
21169;DHT22;10742;51.816;8.662;2023-08-06T04:50:24;18.80;96.50
21169;DHT22;10742;51.816;8.662;2023-08-06T04:53:54;18.80;96.50
21169;DHT22;10742;51.816;8.662;2023-08-06T04:57:14;18.90;96.40
21169;DHT22;10742;51.816;8.662;2023-08-06T05:00:35;18.90;96.30
21169;DHT22;10742;51.816;8.662;2023-08-06T05:03:44;19.00;96.20
21169;DHT22;10742;51.816;8.662;2023-08-06T05:06:50;19.00;96.20
21169;DHT22;10742;51.816;8.662;2023-08-06T05:09:56;19.00;96.20
21169;DHT22;10742;51.816;8.662;2023-08-06T05:13:04;19.00;96.30
21169;DHT22;10742;51.816;8.662;2023-08-06T05:16:10;19.10;96.20
21169;DHT22;10742;51.816;8.662;2023-08-06T05:19:16;19.10;96.20
21169;DHT22;10742;51.816;8.662;2023-08-06T05:22:18;19.10;96.20
21169;DHT22;10742;51.816;8.662;2023-08-06T05:25:21;19.20;96.20
21169;DHT22;10742;51.816;8.662;2023-08-06T05:28:24;19.20;96.20
21169;DHT22;10742;51.816;8.662;2023-08-06T05:31:27;19.30;96.30
21169;DHT22;10742;51.816;8.662;2023-08-06T05:34:32;19.30;96.30
21169;DHT22;10742;51.816;8.662;2023-08-06T05:37:36;19.30;96.40
21169;DHT22;10742;51.816;8.662;2023-08-06T05:40:39;19.30;96.30
21169;DHT22;10742;51.816;8.662;2023-08-06T05:43:43;19.40;96.40
21169;DHT22;10742;51.816;8.662;2023-08-06T05:46:49;19.50;96.40
21169;DHT22;10742;51.816;8.662;2023-08-06T05:49:52;19.50;96.40
21169;DHT22;10742;51.816;8.662;2023-08-06T05:52:54;19.60;96.40
21169;DHT22;10742;51.816;8.662;2023-08-06T05:55:57;19.70;96.40
21169;DHT22;10742;51.816;8.662;2023-08-06T05:59:00;19.70;96.50
21169;DHT22;10742;51.816;8.662;2023-08-06T06:02:03;19.80;96.50
21169;DHT22;10742;51.816;8.662;2023-08-06T06:05:05;19.80;96.50
21169;DHT22;10742;51.816;8.662;2023-08-06T06:08:08;19.90;97.00
21169;DHT22;10742;51.816;8.662;2023-08-06T06:11:11;20.00;96.60
21169;DHT22;10742;51.816;8.662;2023-08-06T06:14:14;20.10;96.60
21169;DHT22;10742;51.816;8.662;2023-08-06T06:17:16;20.20;96.40
21169;DHT22;10742;51.816;8.662;2023-08-06T06:20:26;20.20;96.70
21169;DHT22;10742;51.816;8.662;2023-08-06T06:23:29;20.30;96.40
21169;DHT22;10742;51.816;8.662;2023-08-06T06:26:35;20.30;96.30
21169;DHT22;10742;51.816;8.662;2023-08-06T06:29:39;20.30;96.30
21169;DHT22;10742;51.816;8.662;2023-08-06T06:32:42;20.40;96.30
21169;DHT22;10742;51.816;8.662;2023-08-06T06:35:47;20.40;96.20
21169;DHT22;10742;51.816;8.662;2023-08-06T06:38:49;20.40;96.10
21169;DHT22;10742;51.816;8.662;2023-08-06T06:41:52;20.40;96.10
21169;DHT22;10742;51.816;8.662;2023-08-06T06:45:02;20.50;96.10
21169;DHT22;10742;51.816;8.662;2023-08-06T06:48:07;20.50;96.20
21169;DHT22;10742;51.816;8.662;2023-08-06T06:51:10;20.60;96.20
21169;DHT22;10742;51.816;8.662;2023-08-06T06:54:12;20.60;96.30
21169;DHT22;10742;51.816;8.662;2023-08-06T06:57:15;20.70;96.40
21169;DHT22;10742;51.816;8.662;2023-08-06T07:00:18;20.80;96.90
21169;DHT22;10742;51.816;8.662;2023-08-06T07:03:20;20.80;96.60
21169;DHT22;10742;51.816;8.662;2023-08-06T07:06:23;20.90;96.60
21169;DHT22;10742;51.816;8.662;2023-08-06T07:09:26;21.00;96.50
21169;DHT22;10742;51.816;8.662;2023-08-06T07:12:29;21.10;96.50
21169;DHT22;10742;51.816;8.662;2023-08-06T07:15:32;21.20;96.50
21169;DHT22;10742;51.816;8.662;2023-08-06T07:18:34;21.30;96.50
21169;DHT22;10742;51.816;8.662;2023-08-06T07:21:37;21.40;96.30
21169;DHT22;10742;51.816;8.662;2023-08-06T07:24:40;21.50;96.30
21169;DHT22;10742;51.816;8.662;2023-08-06T07:27:43;21.60;96.40
21169;DHT22;10742;51.816;8.662;2023-08-06T07:30:46;21.70;96.40
21169;DHT22;10742;51.816;8.662;2023-08-06T07:33:49;21.90;96.60
21169;DHT22;10742;51.816;8.662;2023-08-06T07:36:51;22.10;97.10
21169;DHT22;10742;51.816;8.662;2023-08-06T07:39:55;22.30;96.60
21169;DHT22;10742;51.816;8.662;2023-08-06T07:42:58;22.60;96.20
21169;DHT22;10742;51.816;8.662;2023-08-06T07:46:01;22.70;95.70
21169;DHT22;10742;51.816;8.662;2023-08-06T07:49:03;22.90;95.40
21169;DHT22;10742;51.816;8.662;2023-08-06T07:52:06;23.10;95.30
21169;DHT22;10742;51.816;8.662;2023-08-06T07:55:09;23.20;95.10
21169;DHT22;10742;51.816;8.662;2023-08-06T07:58:12;23.50;95.00
21169;DHT22;10742;51.816;8.662;2023-08-06T08:01:14;23.60;94.80
21169;DHT22;10742;51.816;8.662;2023-08-06T08:04:17;23.80;95.10
21169;DHT22;10742;51.816;8.662;2023-08-06T08:07:20;24.10;94.80
21169;DHT22;10742;51.816;8.662;2023-08-06T08:10:23;24.30;94.70
21169;DHT22;10742;51.816;8.662;2023-08-06T08:13:25;24.60;94.50
21169;DHT22;10742;51.816;8.662;2023-08-06T08:16:28;24.90;94.20
21169;DHT22;10742;51.816;8.662;2023-08-06T08:19:31;25.20;93.70
21169;DHT22;10742;51.816;8.662;2023-08-06T08:22:34;25.50;93.50
21169;DHT22;10742;51.816;8.662;2023-08-06T08:25:36;25.70;92.90
21169;DHT22;10742;51.816;8.662;2023-08-06T08:28:39;26.10;92.70
21169;DHT22;10742;51.816;8.662;2023-08-06T08:31:42;26.40;92.20
21169;DHT22;10742;51.816;8.662;2023-08-06T08:34:46;26.60;91.70
21169;DHT22;10742;51.816;8.662;2023-08-06T08:37:48;26.90;91.00
21169;DHT22;10742;51.816;8.662;2023-08-06T08:40:53;27.10;90.20
21169;DHT22;10742;51.816;8.662;2023-08-06T08:43:58;27.20;88.30
21169;DHT22;10742;51.816;8.662;2023-08-06T08:47:01;27.30;87.30
21169;DHT22;10742;51.816;8.662;2023-08-06T08:50:05;27.40;86.70
21169;DHT22;10742;51.816;8.662;2023-08-06T08:53:09;27.40;85.40
21169;DHT22;10742;51.816;8.662;2023-08-06T08:56:13;27.40;85.20
21169;DHT22;10742;51.816;8.662;2023-08-06T08:59:16;27.40;84.80
21169;DHT22;10742;51.816;8.662;2023-08-06T09:02:21;27.40;84.70
21169;DHT22;10742;51.816;8.662;2023-08-06T09:05:25;27.40;83.90
21169;DHT22;10742;51.816;8.662;2023-08-06T09:08:37;27.40;84.70
21169;DHT22;10742;51.816;8.662;2023-08-06T09:11:44;27.40;83.30
21169;DHT22;10742;51.816;8.662;2023-08-06T09:14:47;27.50;83.50
21169;DHT22;10742;51.816;8.662;2023-08-06T09:17:49;27.50;84.10
21169;DHT22;10742;51.816;8.662;2023-08-06T09:20:52;27.60;83.50
21169;DHT22;10742;51.816;8.662;2023-08-06T09:23:55;27.70;83.90
21169;DHT22;10742;51.816;8.662;2023-08-06T09:27:02;27.80;83.50
21169;DHT22;10742;51.816;8.662;2023-08-06T09:30:06;27.90;82.60
21169;DHT22;10742;51.816;8.662;2023-08-06T09:33:09;28.00;83.20
21169;DHT22;10742;51.816;8.662;2023-08-06T09:36:16;28.10;83.00
21169;DHT22;10742;51.816;8.662;2023-08-06T09:39:27;28.20;81.80
21169;DHT22;10742;51.816;8.662;2023-08-06T09:42:30;28.30;80.10
21169;DHT22;10742;51.816;8.662;2023-08-06T09:45:37;28.40;80.20
21169;DHT22;10742;51.816;8.662;2023-08-06T09:48:40;28.40;78.40
21169;DHT22;10742;51.816;8.662;2023-08-06T09:51:44;28.40;78.00
21169;DHT22;10742;51.816;8.662;2023-08-06T09:54:47;28.30;76.60
21169;DHT22;10742;51.816;8.662;2023-08-06T09:57:51;28.20;75.80
21169;DHT22;10742;51.816;8.662;2023-08-06T10:00:53;28.10;75.80
21169;DHT22;10742;51.816;8.662;2023-08-06T10:03:58;28.00;76.30
21169;DHT22;10742;51.816;8.662;2023-08-06T10:07:04;27.80;76.00
21169;DHT22;10742;51.816;8.662;2023-08-06T10:10:07;27.80;75.60
21169;DHT22;10742;51.816;8.662;2023-08-06T10:13:11;27.70;75.70
21169;DHT22;10742;51.816;8.662;2023-08-06T10:16:15;27.60;75.80
21169;DHT22;10742;51.816;8.662;2023-08-06T10:19:18;27.60;75.40
21169;DHT22;10742;51.816;8.662;2023-08-06T10:22:22;27.60;75.90
21169;DHT22;10742;51.816;8.662;2023-08-06T10:25:26;27.60;76.40
21169;DHT22;10742;51.816;8.662;2023-08-06T10:28:39;27.70;75.70
21169;DHT22;10742;51.816;8.662;2023-08-06T10:32:03;27.80;74.60
21169;DHT22;10742;51.816;8.662;2023-08-06T10:35:09;27.80;74.80
21169;DHT22;10742;51.816;8.662;2023-08-06T10:38:49;28.10;76.10
21169;DHT22;10742;51.816;8.662;2023-08-06T10:41:54;28.30;75.50
21169;DHT22;10742;51.816;8.662;2023-08-06T10:45:17;28.60;76.00
21169;DHT22;10742;51.816;8.662;2023-08-06T10:48:36;28.80;73.30
21169;DHT22;10742;51.816;8.662;2023-08-06T10:51:39;29.00;72.30
21169;DHT22;10742;51.816;8.662;2023-08-06T10:54:42;29.20;73.10
21169;DHT22;10742;51.816;8.662;2023-08-06T10:57:45;29.40;72.70
21169;DHT22;10742;51.816;8.662;2023-08-06T11:00:47;29.50;70.60
21169;DHT22;10742;51.816;8.662;2023-08-06T11:03:51;29.50;69.90
21169;DHT22;10742;51.816;8.662;2023-08-06T11:06:55;29.50;68.30
21169;DHT22;10742;51.816;8.662;2023-08-06T11:10:06;29.40;68.10
21169;DHT22;10742;51.816;8.662;2023-08-06T11:13:09;29.30;68.20
21169;DHT22;10742;51.816;8.662;2023-08-06T11:16:16;29.20;68.70
21169;DHT22;10742;51.816;8.662;2023-08-06T11:19:20;29.00;68.80
21169;DHT22;10742;51.816;8.662;2023-08-06T11:22:22;28.80;68.90
21169;DHT22;10742;51.816;8.662;2023-08-06T11:25:27;28.60;68.60
21169;DHT22;10742;51.816;8.662;2023-08-06T11:28:35;28.30;69.10
21169;DHT22;10742;51.816;8.662;2023-08-06T11:31:43;28.00;69.90
21169;DHT22;10742;51.816;8.662;2023-08-06T11:34:46;27.70;70.20
21169;DHT22;10742;51.816;8.662;2023-08-06T11:37:49;27.40;71.10
21169;DHT22;10742;51.816;8.662;2023-08-06T11:40:51;27.20;71.80
21169;DHT22;10742;51.816;8.662;2023-08-06T11:43:54;27.10;72.70
21169;DHT22;10742;51.816;8.662;2023-08-06T11:46:57;26.90;74.10
21169;DHT22;10742;51.816;8.662;2023-08-06T11:49:59;26.70;75.60
21169;DHT22;10742;51.816;8.662;2023-08-06T11:53:02;26.60;77.10
21169;DHT22;10742;51.816;8.662;2023-08-06T11:56:05;26.60;77.80
21169;DHT22;10742;51.816;8.662;2023-08-06T11:59:08;26.60;78.10
21169;DHT22;10742;51.816;8.662;2023-08-06T12:02:11;26.50;78.70
21169;DHT22;10742;51.816;8.662;2023-08-06T12:05:21;26.50;79.30
21169;DHT22;10742;51.816;8.662;2023-08-06T12:08:28;26.60;79.40
21169;DHT22;10742;51.816;8.662;2023-08-06T12:11:41;26.60;79.60
21169;DHT22;10742;51.816;8.662;2023-08-06T12:14:44;26.70;79.30
21169;DHT22;10742;51.816;8.662;2023-08-06T12:17:46;26.70;78.30
21169;DHT22;10742;51.816;8.662;2023-08-06T12:20:49;26.80;78.20
21169;DHT22;10742;51.816;8.662;2023-08-06T12:23:52;26.80;78.50
21169;DHT22;10742;51.816;8.662;2023-08-06T12:26:55;26.90;78.50
21169;DHT22;10742;51.816;8.662;2023-08-06T12:30:00;27.00;77.50
21169;DHT22;10742;51.816;8.662;2023-08-06T12:33:02;27.00;76.80
21169;DHT22;10742;51.816;8.662;2023-08-06T12:36:05;27.00;77.10
21169;DHT22;10742;51.816;8.662;2023-08-06T12:39:07;27.10;76.80
21169;DHT22;10742;51.816;8.662;2023-08-06T12:42:10;27.10;76.60
21169;DHT22;10742;51.816;8.662;2023-08-06T12:45:13;27.20;76.10
21169;DHT22;10742;51.816;8.662;2023-08-06T12:48:16;27.30;75.90
21169;DHT22;10742;51.816;8.662;2023-08-06T12:51:19;27.30;75.50
21169;DHT22;10742;51.816;8.662;2023-08-06T12:54:22;27.30;75.40
21169;DHT22;10742;51.816;8.662;2023-08-06T12:57:24;27.40;75.70
21169;DHT22;10742;51.816;8.662;2023-08-06T13:00:30;27.50;75.40
21169;DHT22;10742;51.816;8.662;2023-08-06T13:03:33;27.60;74.90
21169;DHT22;10742;51.816;8.662;2023-08-06T13:06:36;27.70;75.10
21169;DHT22;10742;51.816;8.662;2023-08-06T13:09:39;27.70;74.50
21169;DHT22;10742;51.816;8.662;2023-08-06T13:12:42;27.80;75.00
21169;DHT22;10742;51.816;8.662;2023-08-06T13:15:45;27.80;75.80
21169;DHT22;10742;51.816;8.662;2023-08-06T13:18:48;27.90;76.10
21169;DHT22;10742;51.816;8.662;2023-08-06T13:24:53;28.10;75.00
21169;DHT22;10742;51.816;8.662;2023-08-06T13:27:55;28.10;74.40
21169;DHT22;10742;51.816;8.662;2023-08-06T13:30:58;28.20;74.30
21169;DHT22;10742;51.816;8.662;2023-08-06T13:34:00;28.20;74.10
21169;DHT22;10742;51.816;8.662;2023-08-06T13:37:03;28.20;73.90
21169;DHT22;10742;51.816;8.662;2023-08-06T13:40:07;28.30;73.50
21169;DHT22;10742;51.816;8.662;2023-08-06T13:43:10;28.30;72.70
21169;DHT22;10742;51.816;8.662;2023-08-06T13:46:14;28.30;71.80
21169;DHT22;10742;51.816;8.662;2023-08-06T13:49:19;28.20;70.70
21169;DHT22;10742;51.816;8.662;2023-08-06T13:52:26;28.10;70.00
21169;DHT22;10742;51.816;8.662;2023-08-06T13:55:36;27.90;68.70
21169;DHT22;10742;51.816;8.662;2023-08-06T13:58:39;27.50;69.00
21169;DHT22;10742;51.816;8.662;2023-08-06T14:01:41;27.10;69.60
21169;DHT22;10742;51.816;8.662;2023-08-06T14:04:52;26.90;70.50
21169;DHT22;10742;51.816;8.662;2023-08-06T14:07:55;26.60;71.90
21169;DHT22;10742;51.816;8.662;2023-08-06T14:10:58;26.40;73.40
21169;DHT22;10742;51.816;8.662;2023-08-06T14:14:01;26.20;74.70
21169;DHT22;10742;51.816;8.662;2023-08-06T14:17:04;25.90;76.20
21169;DHT22;10742;51.816;8.662;2023-08-06T14:20:07;25.70;75.90
21169;DHT22;10742;51.816;8.662;2023-08-06T14:23:13;25.50;76.60
21169;DHT22;10742;51.816;8.662;2023-08-06T14:26:16;25.30;77.90
21169;DHT22;10742;51.816;8.662;2023-08-06T14:29:19;25.10;79.20
21169;DHT22;10742;51.816;8.662;2023-08-06T14:32:22;25.00;80.30
21169;DHT22;10742;51.816;8.662;2023-08-06T14:35:24;24.80;82.40
21169;DHT22;10742;51.816;8.662;2023-08-06T14:38:27;24.70;82.60
21169;DHT22;10742;51.816;8.662;2023-08-06T14:41:29;24.60;83.30
21169;DHT22;10742;51.816;8.662;2023-08-06T14:44:32;24.50;84.20
21169;DHT22;10742;51.816;8.662;2023-08-06T14:47:34;24.40;85.00
21169;DHT22;10742;51.816;8.662;2023-08-06T14:50:37;24.30;85.70
21169;DHT22;10742;51.816;8.662;2023-08-06T14:53:41;24.30;86.50
21169;DHT22;10742;51.816;8.662;2023-08-06T14:56:44;24.30;87.10
21169;DHT22;10742;51.816;8.662;2023-08-06T14:59:46;24.30;87.50
21169;DHT22;10742;51.816;8.662;2023-08-06T15:02:49;24.30;88.10
21169;DHT22;10742;51.816;8.662;2023-08-06T15:05:52;24.30;88.60
21169;DHT22;10742;51.816;8.662;2023-08-06T15:08:54;24.30;88.90
21169;DHT22;10742;51.816;8.662;2023-08-06T15:12:00;24.20;89.70
21169;DHT22;10742;51.816;8.662;2023-08-06T15:15:03;24.20;89.00
21169;DHT22;10742;51.816;8.662;2023-08-06T15:18:05;24.20;88.60
21169;DHT22;10742;51.816;8.662;2023-08-06T15:21:08;24.20;88.90
21169;DHT22;10742;51.816;8.662;2023-08-06T15:24:11;24.20;89.00
21169;DHT22;10742;51.816;8.662;2023-08-06T15:27:14;24.10;89.50
21169;DHT22;10742;51.816;8.662;2023-08-06T15:30:16;24.10;89.40
21169;DHT22;10742;51.816;8.662;2023-08-06T15:33:19;24.00;89.70
21169;DHT22;10742;51.816;8.662;2023-08-06T15:36:21;23.90;89.90
21169;DHT22;10742;51.816;8.662;2023-08-06T15:39:24;23.90;90.00
21169;DHT22;10742;51.816;8.662;2023-08-06T15:42:26;23.80;90.10
21169;DHT22;10742;51.816;8.662;2023-08-06T15:45:29;23.70;90.10
21169;DHT22;10742;51.816;8.662;2023-08-06T15:48:32;23.70;90.30
21169;DHT22;10742;51.816;8.662;2023-08-06T15:51:34;23.70;90.30
21169;DHT22;10742;51.816;8.662;2023-08-06T15:54:38;23.60;90.30
21169;DHT22;10742;51.816;8.662;2023-08-06T15:57:41;23.60;90.30
21169;DHT22;10742;51.816;8.662;2023-08-06T16:00:45;23.50;90.30
21169;DHT22;10742;51.816;8.662;2023-08-06T16:03:47;23.50;90.40
21169;DHT22;10742;51.816;8.662;2023-08-06T16:06:50;23.50;90.50
21169;DHT22;10742;51.816;8.662;2023-08-06T16:09:53;23.50;90.60
21169;DHT22;10742;51.816;8.662;2023-08-06T16:12:56;23.50;90.70
21169;DHT22;10742;51.816;8.662;2023-08-06T16:15:58;23.50;90.70
21169;DHT22;10742;51.816;8.662;2023-08-06T16:19:02;23.50;90.70
21169;DHT22;10742;51.816;8.662;2023-08-06T16:22:05;23.50;90.80
21169;DHT22;10742;51.816;8.662;2023-08-06T16:25:08;23.50;90.80
21169;DHT22;10742;51.816;8.662;2023-08-06T16:28:14;23.50;90.80
21169;DHT22;10742;51.816;8.662;2023-08-06T16:31:17;23.50;90.70
21169;DHT22;10742;51.816;8.662;2023-08-06T16:34:20;23.50;90.70
21169;DHT22;10742;51.816;8.662;2023-08-06T16:37:22;23.50;90.70
21169;DHT22;10742;51.816;8.662;2023-08-06T16:40:25;23.40;90.60
21169;DHT22;10742;51.816;8.662;2023-08-06T16:43:27;23.40;90.70
21169;DHT22;10742;51.816;8.662;2023-08-06T16:46:30;23.30;90.80
21169;DHT22;10742;51.816;8.662;2023-08-06T16:49:33;23.30;90.80
21169;DHT22;10742;51.816;8.662;2023-08-06T16:52:36;23.20;90.80
21169;DHT22;10742;51.816;8.662;2023-08-06T16:55:39;23.10;90.80
21169;DHT22;10742;51.816;8.662;2023-08-06T16:58:42;23.10;91.00
21169;DHT22;10742;51.816;8.662;2023-08-06T17:01:44;23.10;91.00
21169;DHT22;10742;51.816;8.662;2023-08-06T17:04:47;23.00;91.10
21169;DHT22;10742;51.816;8.662;2023-08-06T17:07:50;23.00;91.10
21169;DHT22;10742;51.816;8.662;2023-08-06T17:10:54;22.90;91.30
21169;DHT22;10742;51.816;8.662;2023-08-06T17:13:57;22.90;91.50
21169;DHT22;10742;51.816;8.662;2023-08-06T17:17:00;22.80;91.50
21169;DHT22;10742;51.816;8.662;2023-08-06T17:20:03;22.80;91.50
21169;DHT22;10742;51.816;8.662;2023-08-06T17:23:05;22.70;91.60
21169;DHT22;10742;51.816;8.662;2023-08-06T17:26:08;22.70;91.50
21169;DHT22;10742;51.816;8.662;2023-08-06T17:29:10;22.60;91.50
21169;DHT22;10742;51.816;8.662;2023-08-06T17:32:13;22.60;91.70
21169;DHT22;10742;51.816;8.662;2023-08-06T17:35:16;22.50;91.60
21169;DHT22;10742;51.816;8.662;2023-08-06T17:38:18;22.50;91.70
21169;DHT22;10742;51.816;8.662;2023-08-06T17:41:21;22.50;91.80
21169;DHT22;10742;51.816;8.662;2023-08-06T17:44:24;22.40;91.90
21169;DHT22;10742;51.816;8.662;2023-08-06T17:47:28;22.40;92.00
21169;DHT22;10742;51.816;8.662;2023-08-06T17:50:37;22.40;92.00
21169;DHT22;10742;51.816;8.662;2023-08-06T17:53:41;22.30;92.00
21169;DHT22;10742;51.816;8.662;2023-08-06T17:56:43;22.30;92.00
21169;DHT22;10742;51.816;8.662;2023-08-06T17:59:46;22.30;92.10
21169;DHT22;10742;51.816;8.662;2023-08-06T18:02:49;22.20;92.20
21169;DHT22;10742;51.816;8.662;2023-08-06T18:05:56;22.10;92.30
21169;DHT22;10742;51.816;8.662;2023-08-06T18:08:59;22.10;92.50
21169;DHT22;10742;51.816;8.662;2023-08-06T18:12:01;22.10;92.40
21169;DHT22;10742;51.816;8.662;2023-08-06T18:15:05;22.00;92.40
21169;DHT22;10742;51.816;8.662;2023-08-06T18:18:08;22.00;92.40
21169;DHT22;10742;51.816;8.662;2023-08-06T18:21:12;22.00;92.50
21169;DHT22;10742;51.816;8.662;2023-08-06T18:24:14;21.90;92.50
21169;DHT22;10742;51.816;8.662;2023-08-06T18:27:17;22.00;92.60
21169;DHT22;10742;51.816;8.662;2023-08-06T18:30:20;21.90;92.60
21169;DHT22;10742;51.816;8.662;2023-08-06T18:33:22;21.90;92.80
21169;DHT22;10742;51.816;8.662;2023-08-06T18:36:25;21.90;92.70
21169;DHT22;10742;51.816;8.662;2023-08-06T18:39:27;21.90;92.70
21169;DHT22;10742;51.816;8.662;2023-08-06T18:42:30;21.90;92.60
21169;DHT22;10742;51.816;8.662;2023-08-06T18:45:33;21.80;92.60
21169;DHT22;10742;51.816;8.662;2023-08-06T18:48:41;21.80;92.70
21169;DHT22;10742;51.816;8.662;2023-08-06T18:51:43;21.80;93.10
21169;DHT22;10742;51.816;8.662;2023-08-06T18:54:46;21.80;92.70
21169;DHT22;10742;51.816;8.662;2023-08-06T18:57:49;21.70;92.70
21169;DHT22;10742;51.816;8.662;2023-08-06T19:00:56;21.70;92.70
21169;DHT22;10742;51.816;8.662;2023-08-06T19:03:59;21.70;92.80
21169;DHT22;10742;51.816;8.662;2023-08-06T19:07:02;21.70;92.70
21169;DHT22;10742;51.816;8.662;2023-08-06T19:10:05;21.60;92.70
21169;DHT22;10742;51.816;8.662;2023-08-06T19:13:10;21.60;92.70
21169;DHT22;10742;51.816;8.662;2023-08-06T19:16:12;21.50;92.80
21169;DHT22;10742;51.816;8.662;2023-08-06T19:19:15;21.50;92.80
21169;DHT22;10742;51.816;8.662;2023-08-06T19:22:18;21.50;92.90
21169;DHT22;10742;51.816;8.662;2023-08-06T19:25:20;21.40;92.90
21169;DHT22;10742;51.816;8.662;2023-08-06T19:28:23;21.40;93.00
21169;DHT22;10742;51.816;8.662;2023-08-06T19:31:26;21.30;93.00
21169;DHT22;10742;51.816;8.662;2023-08-06T19:34:28;21.30;93.10
21169;DHT22;10742;51.816;8.662;2023-08-06T19:37:31;21.30;93.20